sensor_id;sensor_type;location;lat;lon;timestamp;noise_LAeq;noise_LA_min;noise_LA_max;noise_LA01;noise_LA95
66460;Laerm;58055;52.456;4.738;2023-04-24T00:00:06;49.27;46.15;66.88;;
66460;Laerm;58055;52.456;4.738;2023-04-24T00:00:19;49.95;46.08;62.97;;
66460;Laerm;58055;52.456;4.738;2023-04-24T00:00:29;58.50;45.35;80.91;;
66460;Laerm;58055;52.456;4.738;2023-04-24T00:00:40;51.49;45.47;71.44;;
66460;Laerm;58055;52.456;4.738;2023-04-24T00:00:50;57.55;45.52;78.15;;
66460;Laerm;58055;52.456;4.738;2023-04-24T00:01:02;48.87;45.60;67.42;;
66460;Laerm;58055;52.456;4.738;2023-04-24T00:01:12;51.53;45.81;73.37;;
66460;Laerm;58055;52.456;4.738;2023-04-24T00:01:23;48.43;46.41;55.59;;
66460;Laerm;58055;52.456;4.738;2023-04-24T00:01:33;49.45;46.30;65.39;;
66460;Laerm;58055;52.456;4.738;2023-04-24T00:01:44;55.94;46.93;78.93;;
66460;Laerm;58055;52.456;4.738;2023-04-24T00:01:54;50.99;47.11;62.17;;
66460;Laerm;58055;52.456;4.738;2023-04-24T00:02:05;50.21;47.29;59.71;;
66460;Laerm;58055;52.456;4.738;2023-04-24T00:02:16;51.02;47.25;69.94;;
66460;Laerm;58055;52.456;4.738;2023-04-24T00:02:27;49.24;46.50;60.93;;
66460;Laerm;58055;52.456;4.738;2023-04-24T00:02:37;49.52;46.06;67.42;;
66460;Laerm;58055;52.456;4.738;2023-04-24T00:02:48;48.47;45.72;64.21;;
66460;Laerm;58055;52.456;4.738;2023-04-24T00:02:58;58.47;45.74;82.39;;
66460;Laerm;58055;52.456;4.738;2023-04-24T00:03:09;48.06;46.04;54.71;;
66460;Laerm;58055;52.456;4.738;2023-04-24T00:03:19;49.11;46.44;67.01;;
66460;Laerm;58055;52.456;4.738;2023-04-24T00:03:31;50.31;45.96;69.05;;
66460;Laerm;58055;52.456;4.738;2023-04-24T00:03:42;48.30;46.15;59.53;;
66460;Laerm;58055;52.456;4.738;2023-04-24T00:03:53;49.23;45.94;63.94;;
66460;Laerm;58055;52.456;4.738;2023-04-24T00:04:03;53.49;45.93;74.72;;
66460;Laerm;58055;52.456;4.738;2023-04-24T00:04:13;49.70;46.11;67.13;;
66460;Laerm;58055;52.456;4.738;2023-04-24T00:04:26;54.39;46.28;78.02;;
66460;Laerm;58055;52.456;4.738;2023-04-24T00:04:37;69.88;46.25;94.59;;
66460;Laerm;58055;52.456;4.738;2023-04-24T00:04:50;54.75;46.02;79.24;;
66460;Laerm;58055;52.456;4.738;2023-04-24T00:05:01;48.76;46.26;60.68;;
66460;Laerm;58055;52.456;4.738;2023-04-24T00:05:15;48.50;46.26;58.66;;
66460;Laerm;58055;52.456;4.738;2023-04-24T00:05:27;54.51;45.78;77.20;;
66460;Laerm;58055;52.456;4.738;2023-04-24T00:05:37;51.37;46.16;71.73;;
66460;Laerm;58055;52.456;4.738;2023-04-24T00:05:50;50.34;46.89;68.05;;
66460;Laerm;58055;52.456;4.738;2023-04-24T00:06:01;49.76;47.09;57.53;;
66460;Laerm;58055;52.456;4.738;2023-04-24T00:06:12;49.85;46.61;63.47;;
66460;Laerm;58055;52.456;4.738;2023-04-24T00:06:22;50.96;46.70;70.96;;
66460;Laerm;58055;52.456;4.738;2023-04-24T00:06:33;60.40;47.13;85.01;;
66460;Laerm;58055;52.456;4.738;2023-04-24T00:06:43;50.54;47.17;64.20;;
66460;Laerm;58055;52.456;4.738;2023-04-24T00:06:54;59.93;46.80;84.24;;
66460;Laerm;58055;52.456;4.738;2023-04-24T00:07:07;53.65;47.39;73.56;;
66460;Laerm;58055;52.456;4.738;2023-04-24T00:07:17;53.53;47.98;75.73;;
66460;Laerm;58055;52.456;4.738;2023-04-24T00:07:27;50.42;47.63;63.66;;
66460;Laerm;58055;52.456;4.738;2023-04-24T00:07:37;50.31;47.64;66.99;;
66460;Laerm;58055;52.456;4.738;2023-04-24T00:07:48;50.64;47.11;67.86;;
66460;Laerm;58055;52.456;4.738;2023-04-24T00:07:58;50.73;47.34;68.93;;
66460;Laerm;58055;52.456;4.738;2023-04-24T00:08:08;58.96;47.33;81.75;;
66460;Laerm;58055;52.456;4.738;2023-04-24T00:08:18;52.57;47.23;73.61;;
66460;Laerm;58055;52.456;4.738;2023-04-24T00:08:29;49.61;47.17;61.48;;
66460;Laerm;58055;52.456;4.738;2023-04-24T00:08:39;48.89;46.68;53.78;;
66460;Laerm;58055;52.456;4.738;2023-04-24T00:08:50;48.52;46.37;58.97;;
66460;Laerm;58055;52.456;4.738;2023-04-24T00:09:00;48.44;45.98;58.21;;
66460;Laerm;58055;52.456;4.738;2023-04-24T00:09:11;48.17;46.13;52.59;;
66460;Laerm;58055;52.456;4.738;2023-04-24T00:09:21;49.05;46.47;62.48;;
66460;Laerm;58055;52.456;4.738;2023-04-24T00:09:31;48.29;46.32;54.67;;
66460;Laerm;58055;52.456;4.738;2023-04-24T00:09:42;48.25;46.17;54.87;;
66460;Laerm;58055;52.456;4.738;2023-04-24T00:09:52;48.98;46.32;65.37;;
66460;Laerm;58055;52.456;4.738;2023-04-24T00:10:02;49.34;46.14;61.52;;
66460;Laerm;58055;52.456;4.738;2023-04-24T00:10:13;49.85;46.29;57.79;;
66460;Laerm;58055;52.456;4.738;2023-04-24T00:10:23;48.75;46.18;63.72;;
66460;Laerm;58055;52.456;4.738;2023-04-24T00:10:33;48.90;45.88;66.38;;
66460;Laerm;58055;52.456;4.738;2023-04-24T00:10:44;54.63;45.83;75.56;;
66460;Laerm;58055;52.456;4.738;2023-04-24T00:10:54;48.13;45.61;58.64;;
66460;Laerm;58055;52.456;4.738;2023-04-24T00:11:04;48.24;45.44;62.23;;
66460;Laerm;58055;52.456;4.738;2023-04-24T00:11:15;47.94;45.51;58.91;;
66460;Laerm;58055;52.456;4.738;2023-04-24T00:11:25;63.34;45.15;87.74;;
66460;Laerm;58055;52.456;4.738;2023-04-24T00:11:36;56.19;45.91;76.20;;
66460;Laerm;58055;52.456;4.738;2023-04-24T00:11:46;48.26;45.33;57.16;;
66460;Laerm;58055;52.456;4.738;2023-04-24T00:11:56;48.77;45.62;66.03;;
66460;Laerm;58055;52.456;4.738;2023-04-24T00:12:07;52.31;45.37;75.23;;
66460;Laerm;58055;52.456;4.738;2023-04-24T00:12:17;61.17;44.79;83.44;;
66460;Laerm;58055;52.456;4.738;2023-04-24T00:12:28;57.38;44.61;81.40;;
66460;Laerm;58055;52.456;4.738;2023-04-24T00:12:38;46.55;43.98;51.09;;
66460;Laerm;58055;52.456;4.738;2023-04-24T00:12:48;46.32;44.32;53.24;;
66460;Laerm;58055;52.456;4.738;2023-04-24T00:12:59;46.05;43.97;50.93;;
66460;Laerm;58055;52.456;4.738;2023-04-24T00:13:09;57.69;44.27;79.51;;
66460;Laerm;58055;52.456;4.738;2023-04-24T00:13:19;48.61;43.44;69.99;;
66460;Laerm;58055;52.456;4.738;2023-04-24T00:13:30;45.73;43.27;52.30;;
66460;Laerm;58055;52.456;4.738;2023-04-24T00:13:40;46.48;42.95;63.94;;
66460;Laerm;58055;52.456;4.738;2023-04-24T00:13:50;51.33;43.19;74.70;;
66460;Laerm;58055;52.456;4.738;2023-04-24T00:14:01;53.55;43.11;75.53;;
66460;Laerm;58055;52.456;4.738;2023-04-24T00:14:11;45.44;42.83;51.57;;
66460;Laerm;58055;52.456;4.738;2023-04-24T00:14:21;44.98;42.84;47.70;;
66460;Laerm;58055;52.456;4.738;2023-04-24T00:14:31;48.29;42.71;66.75;;
66460;Laerm;58055;52.456;4.738;2023-04-24T00:14:42;45.52;43.30;56.42;;
66460;Laerm;58055;52.456;4.738;2023-04-24T00:14:52;45.86;44.10;52.96;;
66460;Laerm;58055;52.456;4.738;2023-04-24T00:15:03;45.71;43.41;49.41;;
66460;Laerm;58055;52.456;4.738;2023-04-24T00:15:13;45.78;43.72;50.66;;
66460;Laerm;58055;52.456;4.738;2023-04-24T00:15:24;53.79;43.82;76.36;;
66460;Laerm;58055;52.456;4.738;2023-04-24T00:15:34;52.78;43.88;75.95;;
66460;Laerm;58055;52.456;4.738;2023-04-24T00:15:45;48.45;44.34;66.16;;
66460;Laerm;58055;52.456;4.738;2023-04-24T00:15:55;49.42;45.78;54.51;;
66460;Laerm;58055;52.456;4.738;2023-04-24T00:16:06;55.45;44.63;75.80;;
66460;Laerm;58055;52.456;4.738;2023-04-24T00:16:16;46.93;44.13;51.15;;
66460;Laerm;58055;52.456;4.738;2023-04-24T00:16:26;46.18;43.33;51.49;;
66460;Laerm;58055;52.456;4.738;2023-04-24T00:16:36;54.56;43.35;76.76;;
66460;Laerm;58055;52.456;4.738;2023-04-24T00:16:46;47.58;43.77;66.53;;
66460;Laerm;58055;52.456;4.738;2023-04-24T00:16:57;45.36;42.24;56.80;;
66460;Laerm;58055;52.456;4.738;2023-04-24T00:17:07;44.49;42.18;51.95;;
66460;Laerm;58055;52.456;4.738;2023-04-24T00:17:17;52.73;42.57;73.94;;
66460;Laerm;58055;52.456;4.738;2023-04-24T00:17:30;46.94;42.99;66.55;;
66460;Laerm;58055;52.456;4.738;2023-04-24T00:17:40;47.61;44.36;66.27;;
66460;Laerm;58055;52.456;4.738;2023-04-24T00:17:51;47.21;43.33;57.30;;
66460;Laerm;58055;52.456;4.738;2023-04-24T00:18:03;45.99;42.21;65.57;;
66460;Laerm;58055;52.456;4.738;2023-04-24T00:18:13;47.53;42.37;69.02;;
66460;Laerm;58055;52.456;4.738;2023-04-24T00:18:23;53.69;42.04;77.54;;
66460;Laerm;58055;52.456;4.738;2023-04-24T00:18:34;43.77;41.55;51.02;;
66460;Laerm;58055;52.456;4.738;2023-04-24T00:18:44;43.47;41.67;48.17;;
66460;Laerm;58055;52.456;4.738;2023-04-24T00:18:55;43.74;41.68;54.71;;
66460;Laerm;58055;52.456;4.738;2023-04-24T00:19:05;43.53;41.72;49.75;;
66460;Laerm;58055;52.456;4.738;2023-04-24T00:19:16;45.23;41.25;64.34;;
66460;Laerm;58055;52.456;4.738;2023-04-24T00:19:27;48.43;42.20;63.03;;
66460;Laerm;58055;52.456;4.738;2023-04-24T00:19:37;50.10;42.48;59.46;;
66460;Laerm;58055;52.456;4.738;2023-04-24T00:19:48;46.95;41.59;63.69;;
66460;Laerm;58055;52.456;4.738;2023-04-24T00:20:00;52.38;41.56;75.86;;
66460;Laerm;58055;52.456;4.738;2023-04-24T00:20:11;45.12;41.56;60.91;;
66460;Laerm;58055;52.456;4.738;2023-04-24T00:20:22;44.15;41.97;52.75;;
66460;Laerm;58055;52.456;4.738;2023-04-24T00:20:32;43.82;41.48;51.53;;
66460;Laerm;58055;52.456;4.738;2023-04-24T00:20:43;43.93;41.78;51.28;;
66460;Laerm;58055;52.456;4.738;2023-04-24T00:20:53;44.36;41.81;54.33;;
66460;Laerm;58055;52.456;4.738;2023-04-24T00:21:04;44.49;41.23;58.49;;
66460;Laerm;58055;52.456;4.738;2023-04-24T00:21:15;47.51;41.35;70.15;;
66460;Laerm;58055;52.456;4.738;2023-04-24T00:21:27;44.13;41.47;58.87;;
66460;Laerm;58055;52.456;4.738;2023-04-24T00:21:38;44.94;41.69;64.10;;
66460;Laerm;58055;52.456;4.738;2023-04-24T00:21:48;43.53;41.46;49.96;;
66460;Laerm;58055;52.456;4.738;2023-04-24T00:22:01;43.71;40.96;55.62;;
66460;Laerm;58055;52.456;4.738;2023-04-24T00:22:12;48.35;41.08;71.47;;
66460;Laerm;58055;52.456;4.738;2023-04-24T00:22:25;48.16;41.12;71.37;;
66460;Laerm;58055;52.456;4.738;2023-04-24T00:22:36;47.33;41.56;68.46;;
66460;Laerm;58055;52.456;4.738;2023-04-24T00:22:46;45.07;41.61;63.65;;
66460;Laerm;58055;52.456;4.738;2023-04-24T00:22:56;60.22;41.20;84.80;;
66460;Laerm;58055;52.456;4.738;2023-04-24T00:23:07;45.13;41.38;62.14;;
66460;Laerm;58055;52.456;4.738;2023-04-24T00:23:17;44.06;41.80;53.36;;
66460;Laerm;58055;52.456;4.738;2023-04-24T00:23:27;48.98;41.73;71.86;;
66460;Laerm;58055;52.456;4.738;2023-04-24T00:23:37;44.42;42.50;52.68;;
66460;Laerm;58055;52.456;4.738;2023-04-24T00:23:48;57.34;42.06;79.29;;
66460;Laerm;58055;52.456;4.738;2023-04-24T00:23:58;45.57;42.34;59.78;;
66460;Laerm;58055;52.456;4.738;2023-04-24T00:24:08;47.62;42.35;67.53;;
66460;Laerm;58055;52.456;4.738;2023-04-24T00:24:19;54.59;42.00;77.86;;
66460;Laerm;58055;52.456;4.738;2023-04-24T00:24:30;47.44;42.32;68.52;;
66460;Laerm;58055;52.456;4.738;2023-04-24T00:24:40;44.56;42.58;52.16;;
66460;Laerm;58055;52.456;4.738;2023-04-24T00:24:50;54.74;42.62;78.98;;
66460;Laerm;58055;52.456;4.738;2023-04-24T00:25:00;47.99;42.48;69.94;;
66460;Laerm;58055;52.456;4.738;2023-04-24T00:25:11;57.85;43.21;82.34;;
66460;Laerm;58055;52.456;4.738;2023-04-24T00:25:21;49.47;42.65;71.71;;
66460;Laerm;58055;52.456;4.738;2023-04-24T00:25:31;48.03;43.04;69.76;;
66460;Laerm;58055;52.456;4.738;2023-04-24T00:25:42;45.40;42.93;58.40;;
66460;Laerm;58055;52.456;4.738;2023-04-24T00:25:52;49.47;43.09;69.94;;
66460;Laerm;58055;52.456;4.738;2023-04-24T00:26:02;45.61;42.15;61.71;;
66460;Laerm;58055;52.456;4.738;2023-04-24T00:26:13;44.84;42.49;53.33;;
66460;Laerm;58055;52.456;4.738;2023-04-24T00:26:23;52.87;42.98;76.95;;
66460;Laerm;58055;52.456;4.738;2023-04-24T00:26:34;57.37;43.56;80.76;;
66460;Laerm;58055;52.456;4.738;2023-04-24T00:26:44;51.24;43.67;71.45;;
66460;Laerm;58055;52.456;4.738;2023-04-24T00:26:54;52.41;43.73;75.44;;
66460;Laerm;58055;52.456;4.738;2023-04-24T00:27:05;53.74;43.50;77.33;;
66460;Laerm;58055;52.456;4.738;2023-04-24T00:27:15;54.80;42.40;79.08;;
66460;Laerm;58055;52.456;4.738;2023-04-24T00:27:25;49.17;42.08;69.06;;
66460;Laerm;58055;52.456;4.738;2023-04-24T00:27:35;44.62;41.74;58.17;;
66460;Laerm;58055;52.456;4.738;2023-04-24T00:27:47;48.13;42.16;70.36;;
66460;Laerm;58055;52.456;4.738;2023-04-24T00:27:57;45.02;42.65;57.45;;
66460;Laerm;58055;52.456;4.738;2023-04-24T00:28:07;46.87;42.47;64.38;;
66460;Laerm;58055;52.456;4.738;2023-04-24T00:28:17;45.02;42.83;50.91;;
66460;Laerm;58055;52.456;4.738;2023-04-24T00:28:28;60.31;42.71;84.80;;
66460;Laerm;58055;52.456;4.738;2023-04-24T00:28:38;47.35;41.88;68.32;;
66460;Laerm;58055;52.456;4.738;2023-04-24T00:28:48;44.42;41.97;50.76;;
66460;Laerm;58055;52.456;4.738;2023-04-24T00:28:58;46.56;41.96;67.74;;
66460;Laerm;58055;52.456;4.738;2023-04-24T00:29:09;43.98;41.00;59.36;;
66460;Laerm;58055;52.456;4.738;2023-04-24T00:29:19;51.98;41.11;75.12;;
66460;Laerm;58055;52.456;4.738;2023-04-24T00:29:29;45.78;40.95;64.64;;
66460;Laerm;58055;52.456;4.738;2023-04-24T00:29:40;45.93;41.16;64.93;;
66460;Laerm;58055;52.456;4.738;2023-04-24T00:29:50;55.49;41.06;78.07;;
66460;Laerm;58055;52.456;4.738;2023-04-24T00:30:00;52.90;40.97;75.60;;
66460;Laerm;58055;52.456;4.738;2023-04-24T00:30:10;43.52;40.80;51.99;;
66460;Laerm;58055;52.456;4.738;2023-04-24T00:30:21;43.44;41.37;53.02;;
66460;Laerm;58055;52.456;4.738;2023-04-24T00:30:31;44.21;41.12;58.87;;
66460;Laerm;58055;52.456;4.738;2023-04-24T00:30:42;43.71;41.57;52.50;;
66460;Laerm;58055;52.456;4.738;2023-04-24T00:30:52;47.10;42.18;69.09;;
66460;Laerm;58055;52.456;4.738;2023-04-24T00:31:02;48.09;42.13;69.21;;
66460;Laerm;58055;52.456;4.738;2023-04-24T00:31:12;46.43;42.03;67.40;;
66460;Laerm;58055;52.456;4.738;2023-04-24T00:31:23;44.35;41.97;58.01;;
66460;Laerm;58055;52.456;4.738;2023-04-24T00:31:33;61.33;41.88;85.91;;
66460;Laerm;58055;52.456;4.738;2023-04-24T00:31:46;45.07;42.29;63.52;;
66460;Laerm;58055;52.456;4.738;2023-04-24T00:31:56;51.79;42.06;75.50;;
66460;Laerm;58055;52.456;4.738;2023-04-24T00:32:07;44.60;42.31;57.81;;
66460;Laerm;58055;52.456;4.738;2023-04-24T00:32:17;44.97;42.18;59.66;;
66460;Laerm;58055;52.456;4.738;2023-04-24T00:32:27;46.72;42.03;65.50;;
66460;Laerm;58055;52.456;4.738;2023-04-24T00:32:38;44.88;42.20;60.14;;
66460;Laerm;58055;52.456;4.738;2023-04-24T00:32:48;45.57;42.19;63.52;;
66460;Laerm;58055;52.456;4.738;2023-04-24T00:32:58;45.35;42.18;57.24;;
66460;Laerm;58055;52.456;4.738;2023-04-24T00:33:08;44.53;41.98;54.54;;
66460;Laerm;58055;52.456;4.738;2023-04-24T00:33:19;47.01;42.24;67.55;;
66460;Laerm;58055;52.456;4.738;2023-04-24T00:33:29;54.84;42.93;78.81;;
66460;Laerm;58055;52.456;4.738;2023-04-24T00:33:39;51.47;43.16;74.64;;
66460;Laerm;58055;52.456;4.738;2023-04-24T00:33:50;52.56;44.53;64.89;;
66460;Laerm;58055;52.456;4.738;2023-04-24T00:34:01;61.30;43.80;85.60;;
66460;Laerm;58055;52.456;4.738;2023-04-24T00:34:12;54.31;43.00;78.79;;
66460;Laerm;58055;52.456;4.738;2023-04-24T00:34:22;60.95;43.17;85.51;;
66460;Laerm;58055;52.456;4.738;2023-04-24T00:34:32;45.36;43.05;52.46;;
66460;Laerm;58055;52.456;4.738;2023-04-24T00:34:43;52.15;42.92;75.79;;
66460;Laerm;58055;52.456;4.738;2023-04-24T00:34:53;49.33;42.73;67.78;;
66460;Laerm;58055;52.456;4.738;2023-04-24T00:35:04;55.48;42.56;79.65;;
66460;Laerm;58055;52.456;4.738;2023-04-24T00:35:15;47.61;43.42;67.11;;
66460;Laerm;58055;52.456;4.738;2023-04-24T00:35:26;45.51;42.43;56.72;;
66460;Laerm;58055;52.456;4.738;2023-04-24T00:35:36;51.01;42.85;74.17;;
66460;Laerm;58055;52.456;4.738;2023-04-24T00:35:46;54.42;42.45;78.34;;
66460;Laerm;58055;52.456;4.738;2023-04-24T00:35:56;45.99;42.55;64.86;;
66460;Laerm;58055;52.456;4.738;2023-04-24T00:36:07;44.64;42.00;54.73;;
66460;Laerm;58055;52.456;4.738;2023-04-24T00:36:17;44.16;41.68;50.77;;
66460;Laerm;58055;52.456;4.738;2023-04-24T00:36:29;49.38;42.02;69.80;;
66460;Laerm;58055;52.456;4.738;2023-04-24T00:36:40;45.88;42.08;62.57;;
66460;Laerm;58055;52.456;4.738;2023-04-24T00:36:51;48.84;41.65;72.01;;
66460;Laerm;58055;52.456;4.738;2023-04-24T00:37:02;48.75;41.66;70.37;;
66460;Laerm;58055;52.456;4.738;2023-04-24T00:37:12;45.61;41.43;65.74;;
66460;Laerm;58055;52.456;4.738;2023-04-24T00:37:22;45.55;41.33;65.62;;
66460;Laerm;58055;52.456;4.738;2023-04-24T00:37:33;48.71;40.77;70.69;;
66460;Laerm;58055;52.456;4.738;2023-04-24T00:37:43;46.70;41.17;68.19;;
66460;Laerm;58055;52.456;4.738;2023-04-24T00:37:53;43.63;41.59;49.64;;
66460;Laerm;58055;52.456;4.738;2023-04-24T00:38:03;44.09;42.06;48.39;;
66460;Laerm;58055;52.456;4.738;2023-04-24T00:38:14;48.03;41.83;69.00;;
66460;Laerm;58055;52.456;4.738;2023-04-24T00:38:24;48.93;41.77;70.62;;
66460;Laerm;58055;52.456;4.738;2023-04-24T00:38:35;44.85;42.33;50.94;;
66460;Laerm;58055;52.456;4.738;2023-04-24T00:38:45;47.13;42.40;68.09;;
66460;Laerm;58055;52.456;4.738;2023-04-24T00:38:55;47.20;42.27;60.97;;
66460;Laerm;58055;52.456;4.738;2023-04-24T00:39:05;46.31;41.87;63.80;;
66460;Laerm;58055;52.456;4.738;2023-04-24T00:39:19;49.23;41.57;73.08;;
66460;Laerm;58055;52.456;4.738;2023-04-24T00:39:29;45.30;41.58;64.79;;
66460;Laerm;58055;52.456;4.738;2023-04-24T00:39:39;44.53;41.34;60.88;;
66460;Laerm;58055;52.456;4.738;2023-04-24T00:39:49;45.98;42.50;61.31;;
66460;Laerm;58055;52.456;4.738;2023-04-24T00:40:00;49.65;42.02;70.35;;
66460;Laerm;58055;52.456;4.738;2023-04-24T00:40:10;43.95;40.74;58.96;;
66460;Laerm;58055;52.456;4.738;2023-04-24T00:40:21;44.79;41.49;61.12;;
66460;Laerm;58055;52.456;4.738;2023-04-24T00:40:31;43.07;40.86;53.18;;
66460;Laerm;58055;52.456;4.738;2023-04-24T00:40:41;45.38;40.37;66.90;;
66460;Laerm;58055;52.456;4.738;2023-04-24T00:40:52;43.08;40.86;57.34;;
66460;Laerm;58055;52.456;4.738;2023-04-24T00:41:04;44.48;40.75;62.05;;
66460;Laerm;58055;52.456;4.738;2023-04-24T00:41:14;45.40;41.01;65.36;;
66460;Laerm;58055;52.456;4.738;2023-04-24T00:41:24;43.40;40.79;51.67;;
66460;Laerm;58055;52.456;4.738;2023-04-24T00:41:35;43.77;41.62;51.83;;
66460;Laerm;58055;52.456;4.738;2023-04-24T00:41:45;46.55;41.26;66.27;;
66460;Laerm;58055;52.456;4.738;2023-04-24T00:41:56;43.80;41.60;53.28;;
66460;Laerm;58055;52.456;4.738;2023-04-24T00:42:06;50.11;40.99;72.92;;
66460;Laerm;58055;52.456;4.738;2023-04-24T00:42:17;43.84;41.76;53.50;;
66460;Laerm;58055;52.456;4.738;2023-04-24T00:42:27;45.08;40.92;60.99;;
66460;Laerm;58055;52.456;4.738;2023-04-24T00:42:37;43.91;41.01;57.32;;
66460;Laerm;58055;52.456;4.738;2023-04-24T00:42:48;43.53;40.18;60.46;;
66460;Laerm;58055;52.456;4.738;2023-04-24T00:42:59;44.93;40.14;65.30;;
66460;Laerm;58055;52.456;4.738;2023-04-24T00:43:09;49.16;39.99;72.61;;
66460;Laerm;58055;52.456;4.738;2023-04-24T00:43:20;42.41;39.27;56.95;;
66460;Laerm;58055;52.456;4.738;2023-04-24T00:43:31;43.79;39.50;62.86;;
66460;Laerm;58055;52.456;4.738;2023-04-24T00:43:41;42.24;39.28;59.47;;
66460;Laerm;58055;52.456;4.738;2023-04-24T00:43:51;55.59;39.23;79.76;;
66460;Laerm;58055;52.456;4.738;2023-04-24T00:44:02;46.56;39.35;66.52;;
66460;Laerm;58055;52.456;4.738;2023-04-24T00:44:12;41.62;39.21;46.51;;
66460;Laerm;58055;52.456;4.738;2023-04-24T00:44:22;41.69;39.03;54.26;;
66460;Laerm;58055;52.456;4.738;2023-04-24T00:44:33;41.49;39.43;48.71;;
66460;Laerm;58055;52.456;4.738;2023-04-24T00:44:44;48.17;39.27;71.64;;
66460;Laerm;58055;52.456;4.738;2023-04-24T00:44:55;49.00;39.58;69.01;;
66460;Laerm;58055;52.456;4.738;2023-04-24T00:45:06;43.27;39.26;62.36;;
66460;Laerm;58055;52.456;4.738;2023-04-24T00:45:16;44.74;39.24;65.46;;
66460;Laerm;58055;52.456;4.738;2023-04-24T00:45:27;53.18;38.83;77.29;;
66460;Laerm;58055;52.456;4.738;2023-04-24T00:45:37;44.12;39.33;60.74;;
66460;Laerm;58055;52.456;4.738;2023-04-24T00:45:47;42.85;39.62;51.50;;
66460;Laerm;58055;52.456;4.738;2023-04-24T00:45:58;47.39;39.90;68.97;;
66460;Laerm;58055;52.456;4.738;2023-04-24T00:46:09;43.47;40.13;52.83;;
66460;Laerm;58055;52.456;4.738;2023-04-24T00:46:21;44.14;39.90;53.33;;
66460;Laerm;58055;52.456;4.738;2023-04-24T00:46:31;43.05;40.18;52.68;;
66460;Laerm;58055;52.456;4.738;2023-04-24T00:46:42;42.07;39.69;49.05;;
66460;Laerm;58055;52.456;4.738;2023-04-24T00:46:52;42.56;39.59;56.64;;
66460;Laerm;58055;52.456;4.738;2023-04-24T00:47:04;41.53;39.36;45.61;;
66460;Laerm;58055;52.456;4.738;2023-04-24T00:47:15;41.68;39.57;46.44;;
66460;Laerm;58055;52.456;4.738;2023-04-24T00:47:25;42.12;39.08;58.78;;
66460;Laerm;58055;52.456;4.738;2023-04-24T00:47:36;41.63;39.53;53.71;;
66460;Laerm;58055;52.456;4.738;2023-04-24T00:47:46;42.39;39.53;57.04;;
66460;Laerm;58055;52.456;4.738;2023-04-24T00:47:56;52.60;39.85;74.80;;
66460;Laerm;58055;52.456;4.738;2023-04-24T00:48:07;46.40;39.58;69.06;;
66460;Laerm;58055;52.456;4.738;2023-04-24T00:48:17;42.04;39.98;48.27;;
66460;Laerm;58055;52.456;4.738;2023-04-24T00:48:28;48.38;39.52;71.92;;
66460;Laerm;58055;52.456;4.738;2023-04-24T00:48:39;42.20;39.52;57.71;;
66460;Laerm;58055;52.456;4.738;2023-04-24T00:48:49;43.38;39.15;60.88;;
66460;Laerm;58055;52.456;4.738;2023-04-24T00:49:00;42.04;39.55;51.17;;
66460;Laerm;58055;52.456;4.738;2023-04-24T00:49:10;41.70;39.32;51.96;;
66460;Laerm;58055;52.456;4.738;2023-04-24T00:49:21;53.18;39.72;77.71;;
66460;Laerm;58055;52.456;4.738;2023-04-24T00:49:32;44.41;39.94;61.07;;
66460;Laerm;58055;52.456;4.738;2023-04-24T00:49:42;47.63;41.08;64.43;;
66460;Laerm;58055;52.456;4.738;2023-04-24T00:49:52;47.98;42.28;55.10;;
66460;Laerm;58055;52.456;4.738;2023-04-24T00:50:03;47.99;42.85;52.36;;
66460;Laerm;58055;52.456;4.738;2023-04-24T00:50:14;45.15;40.40;62.61;;
66460;Laerm;58055;52.456;4.738;2023-04-24T00:50:25;44.54;40.04;61.89;;
66460;Laerm;58055;52.456;4.738;2023-04-24T00:50:36;44.32;40.16;60.75;;
66460;Laerm;58055;52.456;4.738;2023-04-24T00:50:46;45.90;40.00;68.03;;
66460;Laerm;58055;52.456;4.738;2023-04-24T00:50:56;47.25;40.22;70.21;;
66460;Laerm;58055;52.456;4.738;2023-04-24T00:51:08;48.89;39.66;73.09;;
66460;Laerm;58055;52.456;4.738;2023-04-24T00:51:19;42.84;40.47;49.30;;
66460;Laerm;58055;52.456;4.738;2023-04-24T00:51:29;49.62;40.15;71.05;;
66460;Laerm;58055;52.456;4.738;2023-04-24T00:51:40;42.72;40.14;51.28;;
66460;Laerm;58055;52.456;4.738;2023-04-24T00:51:55;48.08;40.56;72.60;;
66460;Laerm;58055;52.456;4.738;2023-04-24T00:52:06;43.74;41.51;57.48;;
66460;Laerm;58055;52.456;4.738;2023-04-24T00:52:18;49.37;41.17;73.46;;
66460;Laerm;58055;52.456;4.738;2023-04-24T00:52:29;43.48;41.54;54.75;;
66460;Laerm;58055;52.456;4.738;2023-04-24T00:52:41;43.13;40.98;54.59;;
66460;Laerm;58055;52.456;4.738;2023-04-24T00:52:51;42.96;40.46;46.15;;
66460;Laerm;58055;52.456;4.738;2023-04-24T00:53:01;43.54;40.77;50.90;;
66460;Laerm;58055;52.456;4.738;2023-04-24T00:53:12;43.94;42.04;50.48;;
66460;Laerm;58055;52.456;4.738;2023-04-24T00:53:22;54.27;41.52;75.88;;
66460;Laerm;58055;52.456;4.738;2023-04-24T00:53:32;43.97;41.55;54.31;;
66460;Laerm;58055;52.456;4.738;2023-04-24T00:53:43;47.72;40.76;70.29;;
66460;Laerm;58055;52.456;4.738;2023-04-24T00:53:53;42.98;40.89;50.19;;
66460;Laerm;58055;52.456;4.738;2023-04-24T00:54:03;44.77;41.42;63.66;;
66460;Laerm;58055;52.456;4.738;2023-04-24T00:54:13;43.74;40.87;57.14;;
66460;Laerm;58055;52.456;4.738;2023-04-24T00:54:24;43.40;41.67;49.17;;
66460;Laerm;58055;52.456;4.738;2023-04-24T00:54:34;47.50;41.28;68.56;;
66460;Laerm;58055;52.456;4.738;2023-04-24T00:54:45;43.29;41.01;51.40;;
66460;Laerm;58055;52.456;4.738;2023-04-24T00:54:55;49.84;41.10;73.04;;
66460;Laerm;58055;52.456;4.738;2023-04-24T00:55:05;49.20;40.94;72.00;;
66460;Laerm;58055;52.456;4.738;2023-04-24T00:55:16;43.49;40.87;54.41;;
66460;Laerm;58055;52.456;4.738;2023-04-24T00:55:26;56.76;40.68;81.05;;
66460;Laerm;58055;52.456;4.738;2023-04-24T00:55:37;44.32;41.02;61.08;;
66460;Laerm;58055;52.456;4.738;2023-04-24T00:55:47;43.86;41.10;57.69;;
66460;Laerm;58055;52.456;4.738;2023-04-24T00:55:57;45.79;40.55;66.55;;
66460;Laerm;58055;52.456;4.738;2023-04-24T00:56:08;43.88;41.24;56.87;;
66460;Laerm;58055;52.456;4.738;2023-04-24T00:56:18;43.86;40.56;57.04;;
66460;Laerm;58055;52.456;4.738;2023-04-24T00:56:28;44.33;41.24;54.74;;
66460;Laerm;58055;52.456;4.738;2023-04-24T00:56:39;45.90;41.67;65.50;;
66460;Laerm;58055;52.456;4.738;2023-04-24T00:56:50;62.70;42.07;87.62;;
66460;Laerm;58055;52.456;4.738;2023-04-24T00:57:04;45.11;42.47;57.84;;
66460;Laerm;58055;52.456;4.738;2023-04-24T00:57:14;62.09;42.22;87.91;;
66460;Laerm;58055;52.456;4.738;2023-04-24T00:57:25;51.62;41.92;75.22;;
66460;Laerm;58055;52.456;4.738;2023-04-24T00:57:36;45.34;42.76;54.42;;
66460;Laerm;58055;52.456;4.738;2023-04-24T00:57:47;45.14;42.41;55.86;;
66460;Laerm;58055;52.456;4.738;2023-04-24T00:57:58;45.03;42.93;52.73;;
66460;Laerm;58055;52.456;4.738;2023-04-24T00:58:09;46.06;43.66;55.49;;
66460;Laerm;58055;52.456;4.738;2023-04-24T00:58:19;46.54;44.16;55.31;;
66460;Laerm;58055;52.456;4.738;2023-04-24T00:58:30;46.94;44.21;59.88;;
66460;Laerm;58055;52.456;4.738;2023-04-24T00:58:41;47.71;44.33;64.24;;
66460;Laerm;58055;52.456;4.738;2023-04-24T00:58:52;47.61;44.26;63.10;;
66460;Laerm;58055;52.456;4.738;2023-04-24T00:59:02;48.40;43.87;67.65;;
66460;Laerm;58055;52.456;4.738;2023-04-24T00:59:13;47.78;43.89;67.35;;
66460;Laerm;58055;52.456;4.738;2023-04-24T00:59:25;46.88;44.76;59.04;;